createdAt,value
2022-10-18T00:00:30.049Z,99312.34
2022-10-18T00:01:31.570Z,99312.72
2022-10-18T00:02:33.573Z,99315.75
2022-10-18T00:03:36.684Z,99312.72
2022-10-18T00:04:38.198Z,99303.53
2022-10-18T00:05:40.072Z,99307.63
2022-10-18T00:06:43.528Z,99314.47
2022-10-18T00:07:45.669Z,99310.66
2022-10-18T00:08:47.125Z,99310.97
2022-10-18T00:09:48.659Z,99309.47
2022-10-18T00:10:50.491Z,99314.00
2022-10-18T00:11:52.468Z,99316.66
2022-10-18T00:12:55.096Z,99311.34
2022-10-18T00:13:57.639Z,99318.19
2022-10-18T00:14:59.119Z,99313.22
2022-10-18T00:16:03.623Z,99313.59
2022-10-18T00:17:05.465Z,99315.13
2022-10-18T00:18:06.929Z,99311.63
2022-10-18T00:19:08.390Z,99313.88
2022-10-18T00:20:10.873Z,99316.88
2022-10-18T00:21:16.101Z,99317.63
2022-10-18T00:22:17.646Z,99314.56
2022-10-18T00:23:19.073Z,99324.41
2022-10-18T00:24:20.577Z,99322.91
2022-10-18T00:25:22.361Z,99323.22
2022-10-18T00:26:26.825Z,99320.16
2022-10-18T00:27:32.352Z,99325.47
2022-10-18T00:28:35.248Z,99323.50
2022-10-18T00:29:36.758Z,99324.22
2022-10-18T00:30:38.280Z,99328.34
2022-10-18T00:31:40.084Z,99326.81
2022-10-18T00:32:42.551Z,99326.38
2022-10-18T00:33:46.075Z,99329.03
2022-10-18T00:34:47.765Z,99324.84
2022-10-18T00:35:49.354Z,99325.19
2022-10-18T00:36:51.145Z,99318.78
2022-10-18T00:37:52.564Z,99325.59
2022-10-18T00:38:54.365Z,99320.31
2022-10-18T00:39:55.793Z,99325.97
2022-10-18T00:40:57.470Z,99326.72
2022-10-18T00:41:59.231Z,99318.41
2022-10-18T00:43:00.737Z,99322.94
2022-10-18T00:44:07.772Z,99316.47
2022-10-18T00:45:19.295Z,99315.22
2022-10-18T00:46:21.352Z,99310.63
2022-10-18T00:47:22.832Z,99310.94
2022-10-18T00:48:24.657Z,99304.88
2022-10-18T00:49:32.648Z,99315.16
2022-10-18T00:50:35.432Z,99312.06
2022-10-18T00:51:45.343Z,99312.06
2022-10-18T00:52:58.371Z,99304.13
2022-10-18T00:54:00.319Z,99315.50
2022-10-18T00:55:03.182Z,99312.44
2022-10-18T00:56:04.951Z,99308.59
2022-10-18T00:57:07.823Z,99310.47
2022-10-18T00:58:11.053Z,99311.19
2022-10-18T00:59:14.742Z,99314.59
2022-10-18T01:00:16.230Z,99316.88
2022-10-18T01:01:17.829Z,99313.88
2022-10-18T01:02:19.880Z,99313.56
2022-10-18T01:03:21.355Z,99313.13
2022-10-18T01:04:23.156Z,99312.72
2022-10-18T01:05:25.785Z,99318.00
2022-10-18T01:06:29.094Z,99312.72
2022-10-18T01:07:42.676Z,99308.88
2022-10-18T01:09:20.489Z,99308.47
2022-10-18T01:10:27.917Z,99309.22
2022-10-18T01:11:51.430Z,99305.38
2022-10-18T01:13:14.375Z,99303.84
2022-10-18T01:14:34.144Z,99298.47
2022-10-18T01:15:50.914Z,99310.63
2022-10-18T01:17:22.018Z,99296.16
2022-10-18T01:18:49.489Z,99302.19
2022-10-18T01:19:50.863Z,99305.53
2022-10-18T01:20:52.235Z,99305.53
2022-10-18T01:22:09.226Z,99306.69
2022-10-18T01:23:31.802Z,99302.88
2022-10-18T01:24:47.041Z,99306.97
2022-10-18T01:26:11.606Z,99303.22
2022-10-18T01:27:22.075Z,99299.38
2022-10-18T01:28:51.711Z,99298.97
2022-10-18T01:30:08.679Z,99292.03
2022-10-18T01:31:22.847Z,99293.47
2022-10-18T01:32:31.459Z,99292.34
2022-10-18T01:33:41.816Z,99295.44
2022-10-18T01:34:45.940Z,99293.56
2022-10-18T01:35:53.434Z,99298.41
2022-10-18T01:36:57.361Z,99294.25
2022-10-18T01:38:03.158Z,99292.72
2022-10-18T01:39:09.061Z,99293.84
2022-10-18T01:40:13.149Z,99295.00
2022-10-18T01:41:16.714Z,99290.06
2022-10-18T01:42:20.966Z,99285.88
2022-10-18T01:43:24.258Z,99294.25
2022-10-18T01:44:29.469Z,99287.41
2022-10-18T01:45:32.745Z,99292.31
2022-10-18T01:46:35.370Z,99291.50
2022-10-18T01:47:37.138Z,99288.84
2022-10-18T01:48:39.289Z,99288.84
2022-10-18T01:49:40.870Z,99284.34
2022-10-18T01:50:42.353Z,99296.81
2022-10-18T01:51:44.221Z,99288.53
2022-10-18T01:52:50.191Z,99291.94
2022-10-18T01:53:51.845Z,99288.09
2022-10-18T01:54:55.469Z,99287.69
2022-10-18T01:56:27.848Z,99287.25
2022-10-18T01:57:35.420Z,99282.31
2022-10-18T01:58:55.154Z,99273.19
2022-10-18T02:00:12.089Z,99277.72
2022-10-18T02:01:45.892Z,99269.41
2022-10-18T02:02:54.221Z,99270.53
2022-10-18T02:04:05.635Z,99268.16
2022-10-18T02:05:13.144Z,99266.97
2022-10-18T02:06:28.031Z,99276.03
2022-10-18T02:08:00.132Z,99273.78
2022-10-18T02:09:21.095Z,99271.75
2022-10-18T02:10:49.985Z,99265.63
2022-10-18T02:11:54.571Z,99269.44
2022-10-18T02:12:57.620Z,99274.06
2022-10-18T02:14:12.375Z,99279.34
2022-10-18T02:15:19.903Z,99272.53
2022-10-18T02:16:46.233Z,99274.81
2022-10-18T02:17:47.702Z,99270.56
2022-10-18T02:18:55.169Z,99276.63
2022-10-18T02:19:57.150Z,99280.81
2022-10-18T02:21:01.429Z,99276.63
2022-10-18T02:22:04.630Z,99273.56
2022-10-18T02:23:08.475Z,99277.34
2022-10-18T02:24:13.037Z,99276.56
2022-10-18T02:25:20.898Z,99279.53
2022-10-18T02:26:22.473Z,99274.94
2022-10-18T02:27:24.567Z,99280.56
2022-10-18T02:28:26.497Z,99280.25
2022-10-18T02:29:29.236Z,99281.41
2022-10-18T02:30:38.412Z,99280.25
2022-10-18T02:31:45.591Z,99285.09
2022-10-18T02:32:57.006Z,99285.09
2022-10-18T02:34:22.316Z,99288.50
2022-10-18T02:35:35.443Z,99289.22
2022-10-18T02:36:47.936Z,99288.78
2022-10-18T02:37:50.634Z,99287.25
2022-10-18T02:38:56.612Z,99293.66
2022-10-18T02:39:58.486Z,99294.84
2022-10-18T02:40:59.968Z,99296.47
2022-10-18T02:42:07.327Z,99295.00
2022-10-18T02:43:08.789Z,99299.53
2022-10-18T02:44:11.238Z,99295.00
2022-10-18T02:45:13.438Z,99296.53
2022-10-18T02:46:14.979Z,99292.38
2022-10-18T02:47:16.483Z,99289.81
2022-10-18T02:48:17.944Z,99288.34
2022-10-18T02:49:19.384Z,99284.25
2022-10-18T02:50:20.798Z,99287.66
2022-10-18T02:51:22.261Z,99290.63
2022-10-18T02:52:24.248Z,99284.16
2022-10-18T02:53:25.659Z,99285.69
2022-10-18T02:54:27.210Z,99284.16
2022-10-18T02:56:35.539Z,99293.81
2022-10-18T02:57:37.542Z,99288.88
2022-10-18T02:58:39.000Z,99289.63
2022-10-18T02:59:40.410Z,99300.22
2022-10-18T03:00:41.882Z,99291.94
2022-10-18T03:01:43.446Z,99291.59
2022-10-18T03:02:45.102Z,99292.28
2022-10-18T03:03:46.557Z,99294.25
2022-10-18T03:04:47.974Z,99291.25
2022-10-18T03:05:50.414Z,99296.53
2022-10-18T03:06:51.836Z,99289.72
2022-10-18T03:07:53.575Z,99294.25
2022-10-18T03:08:55.038Z,99289.63
2022-10-18T03:09:56.458Z,99292.19
2022-10-18T03:10:57.888Z,99291.44
2022-10-18T03:11:59.436Z,99290.00
2022-10-18T03:13:00.954Z,99290.00
2022-10-18T03:14:02.524Z,99288.09
2022-10-18T03:15:04.290Z,99285.09
2022-10-18T03:16:05.766Z,99280.56
2022-10-18T03:17:07.523Z,99273.75
2022-10-18T03:18:09.248Z,99289.28
2022-10-18T03:19:10.829Z,99279.03
2022-10-18T03:20:12.292Z,99277.50
2022-10-18T03:21:13.856Z,99270.34
2022-10-18T03:22:15.752Z,99274.88
2022-10-18T03:23:17.255Z,99276.75
2022-10-18T03:24:18.717Z,99275.53
2022-10-18T03:25:20.171Z,99277.06
2022-10-18T03:26:21.675Z,99273.66
2022-10-18T03:27:23.459Z,99278.53
2022-10-18T03:28:25.093Z,99276.66
2022-10-18T03:29:26.566Z,99272.13
2022-10-18T03:30:28.046Z,99271.78
2022-10-18T03:32:36.134Z,99276.25
2022-10-18T03:33:37.567Z,99275.81
2022-10-18T03:34:38.981Z,99267.78
2022-10-18T03:35:40.655Z,99277.53
2022-10-18T03:36:42.092Z,99274.47
2022-10-18T03:37:43.841Z,99278.63
2022-10-18T03:38:45.343Z,99277.88
2022-10-18T03:39:46.772Z,99275.22
2022-10-18T03:40:48.199Z,99272.25
2022-10-18T03:41:49.654Z,99273.69
2022-10-18T03:42:51.483Z,99273.69
2022-10-18T03:43:52.918Z,99270.63
2022-10-18T03:44:54.355Z,99280.88
2022-10-18T03:45:56.183Z,99274.03
2022-10-18T03:46:57.640Z,99269.06
2022-10-18T03:47:59.127Z,99270.63
2022-10-18T03:49:00.617Z,99268.75
2022-10-18T03:50:02.047Z,99271.41
2022-10-18T03:51:03.952Z,99265.34
2022-10-18T03:52:05.765Z,99267.56
2022-10-18T03:53:07.301Z,99271.66
2022-10-18T03:54:08.699Z,99264.50
2022-10-18T03:55:10.198Z,99265.94
2022-10-18T03:56:11.650Z,99258.75
2022-10-18T03:57:13.401Z,99260.31
2022-10-18T03:58:14.818Z,99261.41
2022-10-18T03:59:17.513Z,99261.75
2022-10-18T04:00:19.065Z,99263.63
2022-10-18T04:01:20.548Z,99266.97
2022-10-18T04:02:22.354Z,99263.53
2022-10-18T04:03:24.106Z,99265.06
2022-10-18T04:04:25.528Z,99269.59
2022-10-18T04:05:30.465Z,99258.69
2022-10-18T04:06:31.884Z,99268.56
2022-10-18T04:08:36.277Z,99263.03
2022-10-18T04:09:37.809Z,99257.81
2022-10-18T04:10:39.712Z,99263.19
2022-10-18T04:11:41.174Z,99267.38
2022-10-18T04:12:42.602Z,99261.72
2022-10-18T04:13:44.014Z,99265.94
2022-10-18T04:14:45.479Z,99267.03
2022-10-18T04:15:46.899Z,99262.16
2022-10-18T04:16:48.404Z,99261.03
2022-10-18T04:17:49.865Z,99264.91
2022-10-18T04:18:51.315Z,99255.84
2022-10-18T04:19:52.757Z,99262.31
2022-10-18T04:20:54.199Z,99257.44
2022-10-18T04:21:55.643Z,99262.38
2022-10-18T04:22:57.882Z,99263.91
2022-10-18T04:23:59.409Z,99261.63
2022-10-18T04:25:01.275Z,99258.53
2022-10-18T04:26:02.702Z,99262.31
2022-10-18T04:27:07.959Z,99261.63
2022-10-18T04:28:09.707Z,99257.94
2022-10-18T04:29:11.569Z,99251.53
2022-10-18T04:30:13.099Z,99258.34
2022-10-18T04:31:14.590Z,99262.13
2022-10-18T04:32:16.398Z,99255.31
2022-10-18T04:33:18.456Z,99263.25
2022-10-18T04:34:19.973Z,99263.25
2022-10-18T04:35:24.484Z,99257.59
2022-10-18T04:36:25.935Z,99252.66
2022-10-18T04:37:27.436Z,99257.19
2022-10-18T04:38:29.137Z,99261.72
2022-10-18T04:39:30.720Z,99251.13
2022-10-18T04:40:32.427Z,99256.41
2022-10-18T04:41:33.891Z,99256.41
2022-10-18T04:42:35.687Z,99253.06
2022-10-18T04:43:37.541Z,99250.09
2022-10-18T04:44:39.230Z,99257.69
2022-10-18T04:45:40.730Z,99250.50
2022-10-18T04:46:42.260Z,99253.91
2022-10-18T04:47:43.700Z,99252.38
2022-10-18T04:48:45.138Z,99255.03
2022-10-18T04:49:46.657Z,99253.16
2022-10-18T04:50:49.798Z,99255.44
2022-10-18T04:51:51.305Z,99252.47
2022-10-18T04:52:53.685Z,99254.00
2022-10-18T04:53:55.828Z,99254.41
2022-10-18T04:54:57.308Z,99252.94
2022-10-18T04:55:58.767Z,99249.19
2022-10-18T04:57:00.570Z,99251.84
2022-10-18T04:58:02.023Z,99246.19
2022-10-18T04:59:03.503Z,99247.75
2022-10-18T05:00:05.623Z,99248.16
2022-10-18T05:01:07.924Z,99249.69
2022-10-18T05:02:09.717Z,99251.22
2022-10-18T05:03:13.848Z,99250.13
2022-10-18T05:04:15.359Z,99247.47
2022-10-18T05:05:16.895Z,99243.28
2022-10-18T05:06:18.286Z,99242.16
2022-10-18T05:07:20.110Z,99252.00
2022-10-18T05:08:21.518Z,99245.59
2022-10-18T05:09:24.715Z,99242.56
2022-10-18T05:10:26.307Z,99240.63
2022-10-18T05:11:27.784Z,99237.63
2022-10-18T05:12:29.461Z,99244.09
2022-10-18T05:13:31.248Z,99233.19
2022-10-18T05:14:32.663Z,99237.34
2022-10-18T05:15:34.122Z,99240.34
2022-10-18T05:16:35.822Z,99244.53
2022-10-18T05:17:37.274Z,99242.22
2022-10-18T05:18:38.844Z,99240.34
2022-10-18T05:19:40.263Z,99236.16
2022-10-18T05:20:41.786Z,99236.88
2022-10-18T05:21:43.256Z,99234.97
2022-10-18T05:22:45.352Z,99226.69
2022-10-18T05:23:47.212Z,99235.38
2022-10-18T05:24:48.865Z,99228.66
2022-10-18T05:25:51.089Z,99237.72
2022-10-18T05:26:52.634Z,99230.53
2022-10-18T05:27:54.104Z,99231.63
2022-10-18T05:28:55.677Z,99231.13
2022-10-18T05:29:58.936Z,99229.97
2022-10-18T05:31:07.645Z,99230.25
2022-10-18T05:32:09.123Z,99232.88
2022-10-18T05:33:11.245Z,99237.81
2022-10-18T05:34:12.679Z,99234.81
2022-10-18T05:35:14.302Z,99233.28
2022-10-18T05:36:16.037Z,99231.00
2022-10-18T05:37:18.958Z,99232.88
2022-10-18T05:38:20.952Z,99232.19
2022-10-18T05:39:22.542Z,99235.59
2022-10-18T05:40:23.983Z,99234.91
2022-10-18T05:41:25.495Z,99232.25
2022-10-18T05:42:26.979Z,99229.97
2022-10-18T05:43:29.477Z,99239.44
2022-10-18T05:44:31.175Z,99236.44
2022-10-18T05:45:32.831Z,99238.41
2022-10-18T05:46:34.378Z,99237.72
2022-10-18T05:48:44.050Z,99242.28
2022-10-18T05:49:45.493Z,99248.78
2022-10-18T05:50:46.910Z,99247.31
2022-10-18T05:51:48.577Z,99239.81
2022-10-18T05:52:50.281Z,99237.91
2022-10-18T05:53:52.996Z,99244.41
2022-10-18T05:54:54.654Z,99247.06
2022-10-18T05:56:00.619Z,99245.19
2022-10-18T05:57:02.136Z,99246.75
2022-10-18T05:58:04.323Z,99244.50
2022-10-18T05:59:10.168Z,99244.94
2022-10-18T06:00:12.318Z,99247.63
2022-10-18T06:01:14.066Z,99247.28
2022-10-18T06:02:15.813Z,99237.09
2022-10-18T06:03:17.893Z,99237.88
2022-10-18T06:04:19.642Z,99233.75
2022-10-18T06:05:21.228Z,99240.22
2022-10-18T06:06:22.929Z,99236.81
2022-10-18T06:07:24.475Z,99237.59
2022-10-18T06:08:25.986Z,99234.59
2022-10-18T06:09:28.754Z,99246.72
2022-10-18T06:10:30.258Z,99242.97
2022-10-18T06:11:32.400Z,99244.84
2022-10-18T06:12:33.994Z,99244.09
2022-10-18T06:13:39.303Z,99245.59
2022-10-18T06:14:40.814Z,99240.31
2022-10-18T06:15:42.356Z,99246.81
2022-10-18T06:16:44.028Z,99243.03
2022-10-18T06:17:45.709Z,99255.16
2022-10-18T06:18:49.439Z,99258.22
2022-10-18T06:19:50.916Z,99248.38
2022-10-18T06:20:59.381Z,99246.16
2022-10-18T06:22:00.981Z,99256.00
2022-10-18T06:23:02.495Z,99256.00
2022-10-18T06:24:04.219Z,99258.66
2022-10-18T06:25:06.230Z,99257.94
2022-10-18T06:26:10.302Z,99262.91
2022-10-18T06:27:11.808Z,99257.94
2022-10-18T06:28:13.344Z,99267.50
2022-10-18T06:29:15.106Z,99260.72
2022-10-18T06:30:16.816Z,99262.25
2022-10-18T06:31:18.782Z,99263.03
2022-10-18T06:32:20.279Z,99261.91
2022-10-18T06:33:22.023Z,99264.97
2022-10-18T06:34:23.647Z,99254.00
2022-10-18T06:35:25.182Z,99262.72
2022-10-18T06:36:27.694Z,99254.84
2022-10-18T06:37:30.933Z,99253.41
2022-10-18T06:38:33.322Z,99256.88
2022-10-18T06:39:34.951Z,99255.78
2022-10-18T06:40:38.129Z,99262.22
2022-10-18T06:41:39.652Z,99257.69
2022-10-18T06:42:41.258Z,99261.91
2022-10-18T06:43:43.836Z,99264.53
2022-10-18T06:44:45.408Z,99256.59
2022-10-18T06:45:46.933Z,99256.63
2022-10-18T06:46:50.028Z,99249.78
2022-10-18T06:47:51.682Z,99266.84
2022-10-18T06:48:53.226Z,99263.06
2022-10-18T06:49:54.773Z,99269.13
2022-10-18T06:50:59.107Z,99263.50
2022-10-18T06:52:02.227Z,99263.13
2022-10-18T06:53:06.141Z,99268.06
2022-10-18T06:54:17.320Z,99254.81
2022-10-18T06:55:19.862Z,99263.97
2022-10-18T06:56:21.791Z,99264.72
2022-10-18T06:57:23.285Z,99262.84
2022-10-18T06:58:24.854Z,99258.69
2022-10-18T06:59:28.935Z,99256.47
2022-10-18T07:00:32.765Z,99258.00
2022-10-18T07:01:34.588Z,99265.19
2022-10-18T07:02:37.494Z,99265.59
2022-10-18T07:03:39.084Z,99267.91
2022-10-18T07:04:40.549Z,99272.50
2022-10-18T07:05:42.034Z,99262.69
2022-10-18T07:06:44.014Z,99263.06
2022-10-18T07:07:45.616Z,99265.78
2022-10-18T07:08:48.882Z,99256.34
2022-10-18T07:09:50.362Z,99255.22
2022-10-18T07:10:53.262Z,99257.16
2022-10-18T07:11:54.752Z,99262.19
2022-10-18T07:13:13.730Z,99258.81
2022-10-18T07:14:17.963Z,99263.00
2022-10-18T07:15:22.917Z,99257.34
2022-10-18T07:16:24.434Z,99260.75
2022-10-18T07:17:27.326Z,99260.41
2022-10-18T07:18:29.010Z,99265.34
2022-10-18T07:19:30.539Z,99265.00
2022-10-18T07:20:31.993Z,99261.28
2022-10-18T07:21:35.534Z,99264.34
2022-10-18T07:22:38.253Z,99264.34
2022-10-18T07:23:41.876Z,99260.56
2022-10-18T07:24:43.383Z,99262.09
2022-10-18T07:25:44.863Z,99272.03
2022-10-18T07:26:47.348Z,99274.75
2022-10-18T07:27:48.865Z,99274.44
2022-10-18T07:28:57.885Z,99273.31
2022-10-18T07:29:59.648Z,99276.75
2022-10-18T07:31:06.209Z,99278.28
2022-10-18T07:32:08.646Z,99276.44
2022-10-18T07:33:10.077Z,99283.28
2022-10-18T07:34:13.328Z,99287.13
2022-10-18T07:35:14.941Z,99282.22
2022-10-18T07:36:16.725Z,99288.28
2022-10-18T07:37:18.748Z,99297.06
2022-10-18T07:38:20.342Z,99289.16
2022-10-18T07:39:22.413Z,99285.03
2022-10-18T07:40:23.989Z,99290.38
2022-10-18T07:41:25.839Z,99287.78
2022-10-18T07:42:27.429Z,99285.50
2022-10-18T07:43:30.037Z,99281.00
2022-10-18T07:44:31.855Z,99284.81
2022-10-18T07:45:33.345Z,99284.88
2022-10-18T07:46:35.146Z,99278.06
2022-10-18T07:47:36.852Z,99278.03
2022-10-18T07:48:38.568Z,99277.66
2022-10-18T07:49:39.980Z,99286.00
2022-10-18T07:50:41.459Z,99287.06
2022-10-18T07:51:42.924Z,99282.16
2022-10-18T07:52:44.330Z,99279.94
2022-10-18T07:53:46.563Z,99278.09
2022-10-18T07:56:03.498Z,99284.28
2022-10-18T07:57:07.396Z,99282.03
2022-10-18T07:58:08.810Z,99281.69
2022-10-18T07:59:11.215Z,99285.91
2022-10-18T08:00:12.982Z,99285.94
2022-10-18T08:01:15.435Z,99288.25
2022-10-18T08:02:16.897Z,99283.72
2022-10-18T08:03:18.802Z,99281.81
2022-10-18T08:04:20.323Z,99286.81
2022-10-18T08:05:21.833Z,99286.38
2022-10-18T08:06:23.367Z,99277.06
2022-10-18T08:07:24.814Z,99287.34
2022-10-18T08:08:27.147Z,99276.41
2022-10-18T08:09:28.676Z,99275.28
2022-10-18T08:10:30.140Z,99279.09
2022-10-18T08:11:32.170Z,99278.84
2022-10-18T08:12:33.610Z,99280.63
2022-10-18T08:13:35.147Z,99287.59
2022-10-18T08:14:36.592Z,99289.22
2022-10-18T08:15:38.016Z,99283.16
2022-10-18T08:16:39.512Z,99290.03
2022-10-18T08:17:41.011Z,99286.28
2022-10-18T08:18:42.662Z,99292.75
2022-10-18T08:19:52.897Z,99296.59
2022-10-18T08:21:07.910Z,99292.84
2022-10-18T08:22:09.345Z,99289.41
2022-10-18T08:23:10.901Z,99294.06
2022-10-18T08:24:12.427Z,99301.75
2022-10-18T08:25:13.914Z,99303.69
2022-10-18T08:26:18.279Z,99311.38
2022-10-18T08:27:19.927Z,99301.44
2022-10-18T08:28:21.735Z,99304.97
2022-10-18T08:29:26.680Z,99307.25
2022-10-18T08:30:29.537Z,99304.97
2022-10-18T08:31:31.418Z,99299.63
2022-10-18T08:32:33.154Z,99307.75
2022-10-18T08:33:36.181Z,99301.84
2022-10-18T08:35:40.031Z,99306.91
2022-10-18T08:36:41.584Z,99306.28
2022-10-18T08:37:43.625Z,99304.38
2022-10-18T08:38:45.120Z,99311.63
2022-10-18T08:39:46.598Z,99308.53
2022-10-18T08:40:48.837Z,99307.44
2022-10-18T08:42:11.868Z,99308.19
2022-10-18T08:43:31.617Z,99303.22
2022-10-18T08:44:33.783Z,99304.34
2022-10-18T08:45:43.264Z,99296.75
2022-10-18T08:46:47.695Z,99303.22
2022-10-18T08:47:51.999Z,99301.97
2022-10-18T08:48:56.807Z,99302.69
2022-10-18T08:50:02.651Z,99295.31
2022-10-18T08:51:07.043Z,99299.38
2022-10-18T08:54:02.625Z,99305.34
2022-10-18T08:55:10.168Z,99303.34
2022-10-18T08:56:15.055Z,99293.28
2022-10-18T08:57:18.293Z,99292.88
2022-10-18T08:58:22.861Z,99294.72
2022-10-18T08:59:25.539Z,99290.84
2022-10-18T09:00:31.336Z,99291.34
2022-10-18T09:02:03.636Z,99283.00
2022-10-18T09:03:38.490Z,99286.94
2022-10-18T09:05:04.852Z,99288.88
2022-10-18T09:06:33.447Z,99294.25
2022-10-18T09:08:09.751Z,99290.22
2022-10-18T09:09:40.250Z,99289.47
2022-10-18T09:10:44.628Z,99283.38
2022-10-18T09:12:13.805Z,99282.19
2022-10-18T09:13:32.904Z,99280.63
2022-10-18T09:14:51.174Z,99289.00
2022-10-18T09:15:59.884Z,99289.38
2022-10-18T09:17:29.909Z,99292.84
2022-10-18T09:19:03.513Z,99287.50
2022-10-18T09:20:22.085Z,99287.94
2022-10-18T09:21:27.359Z,99293.28
2022-10-18T09:22:53.076Z,99295.97
2022-10-18T09:24:07.689Z,99296.72
2022-10-18T09:25:22.255Z,99295.22
2022-10-18T09:26:33.903Z,99292.91
2022-10-18T09:27:44.692Z,99292.53
2022-10-18T09:28:54.488Z,99295.19
2022-10-18T09:30:06.128Z,99293.31
2022-10-18T09:31:12.537Z,99295.97
2022-10-18T09:32:39.079Z,99301.72
2022-10-18T09:33:56.608Z,99301.31
2022-10-18T09:35:01.266Z,99303.59
2022-10-18T09:36:06.423Z,99290.22
2022-10-18T09:37:18.565Z,99304.38
2022-10-18T09:39:35.281Z,99302.09
2022-10-18T09:40:46.619Z,99304.75
2022-10-18T09:42:26.484Z,99303.97
2022-10-18T09:43:49.391Z,99305.88
2022-10-18T09:44:59.694Z,99306.28
2022-10-18T09:46:02.977Z,99309.72
2022-10-18T09:47:18.938Z,99307.78
2022-10-18T09:48:29.243Z,99310.47
2022-10-18T09:49:39.619Z,99312.78
2022-10-18T09:50:52.912Z,99310.84
2022-10-18T09:51:55.448Z,99310.47
2022-10-18T09:53:35.208Z,99308.19
2022-10-18T09:54:58.086Z,99313.53
2022-10-18T09:56:20.523Z,99307.44
2022-10-18T09:57:27.386Z,99317.72
2022-10-18T09:58:46.951Z,99316.94
2022-10-18T09:59:50.581Z,99317.69
2022-10-18T10:00:53.044Z,99315.03
2022-10-18T10:01:54.622Z,99315.03
2022-10-18T10:02:56.222Z,99311.59
2022-10-18T10:03:57.825Z,99317.72
2022-10-18T10:04:59.307Z,99310.84
2022-10-18T10:06:14.793Z,99311.25
2022-10-18T10:07:31.066Z,99317.72
2022-10-18T10:08:35.541Z,99317.72
2022-10-18T10:09:46.199Z,99319.63
2022-10-18T10:10:48.051Z,99317.69
2022-10-18T10:11:51.497Z,99318.09
2022-10-18T10:13:24.398Z,99310.84
2022-10-18T10:14:28.231Z,99318.84
2022-10-18T10:15:33.177Z,99317.31
2022-10-18T10:16:59.490Z,99319.97
2022-10-18T10:18:07.256Z,99311.56
2022-10-18T10:19:23.444Z,99309.28
2022-10-18T10:21:05.719Z,99311.97
2022-10-18T10:22:10.626Z,99313.16
2022-10-18T10:23:25.111Z,99315.81
2022-10-18T10:24:35.497Z,99310.44
2022-10-18T10:25:38.789Z,99306.66
2022-10-18T10:26:40.251Z,99312.00
2022-10-18T10:27:45.885Z,99304.72
2022-10-18T10:28:48.858Z,99310.03
2022-10-18T10:29:55.921Z,99307.75
2022-10-18T10:31:23.636Z,99312.72
2022-10-18T10:32:44.647Z,99301.66
2022-10-18T10:33:47.602Z,99306.63
2022-10-18T10:34:50.259Z,99315.41
2022-10-18T10:35:59.044Z,99309.28
2022-10-18T10:37:00.584Z,99311.97
2022-10-18T10:38:02.979Z,99302.81
2022-10-18T10:39:13.316Z,99302.81
2022-10-18T10:40:28.657Z,99306.59
2022-10-18T10:43:13.053Z,99300.50
2022-10-18T10:44:31.906Z,99301.63
2022-10-18T10:45:39.110Z,99305.84
2022-10-18T10:46:40.642Z,99294.00
2022-10-18T10:47:42.164Z,99302.03
2022-10-18T10:49:04.128Z,99296.69
2022-10-18T10:50:24.452Z,99297.44
2022-10-18T10:51:33.192Z,99301.25
2022-10-18T10:52:34.681Z,99296.63
2022-10-18T10:53:57.532Z,99296.28
2022-10-18T10:55:06.100Z,99297.81
2022-10-18T10:56:24.026Z,99301.66
2022-10-18T10:57:29.191Z,99298.59
2022-10-18T10:58:37.962Z,99305.50
2022-10-18T10:59:45.836Z,99300.16
2022-10-18T11:00:47.293Z,99296.31
2022-10-18T11:01:51.334Z,99300.50
2022-10-18T11:03:28.509Z,99302.81
2022-10-18T11:04:31.011Z,99296.72
2022-10-18T11:05:43.642Z,99303.22
2022-10-18T11:06:52.152Z,99298.63
2022-10-18T11:07:58.547Z,99299.41
2022-10-18T11:09:03.286Z,99303.22
2022-10-18T11:10:10.656Z,99305.88
2022-10-18T11:11:30.928Z,99304.75
2022-10-18T11:12:34.478Z,99311.63
2022-10-18T11:13:53.395Z,99304.75
2022-10-18T11:15:22.151Z,99318.47
2022-10-18T11:16:36.662Z,99312.75
2022-10-18T11:18:05.793Z,99313.53
2022-10-18T11:19:39.360Z,99305.53
2022-10-18T11:20:47.346Z,99312.78
2022-10-18T11:21:49.124Z,99311.59
2022-10-18T11:22:56.617Z,99305.91
2022-10-18T11:23:59.689Z,99304.38
2022-10-18T11:25:03.834Z,99307.41
2022-10-18T11:26:05.206Z,99303.59
2022-10-18T11:27:24.519Z,99300.16
2022-10-18T11:29:03.653Z,99293.28
2022-10-18T11:30:13.906Z,99289.09
2022-10-18T11:31:22.983Z,99290.63
2022-10-18T11:32:56.440Z,99289.84
2022-10-18T11:34:09.149Z,99288.69
2022-10-18T11:35:30.232Z,99292.88
2022-10-18T11:37:34.485Z,99295.16
2022-10-18T11:38:42.165Z,99293.28
2022-10-18T11:39:52.507Z,99295.19
2022-10-18T11:40:56.927Z,99291.75
2022-10-18T11:42:43.749Z,99292.16
2022-10-18T11:44:08.204Z,99294.81
2022-10-18T11:45:24.710Z,99284.91
2022-10-18T11:46:42.045Z,99286.81
2022-10-18T11:47:58.730Z,99291.75
2022-10-18T11:49:16.562Z,99291.00
2022-10-18T11:50:45.452Z,99283.00
2022-10-18T11:52:07.790Z,99284.53
2022-10-18T11:53:38.022Z,99289.09
2022-10-18T11:54:51.712Z,99280.31
2022-10-18T11:56:22.624Z,99279.53
2022-10-18T11:57:52.219Z,99282.22
2022-10-18T11:59:18.605Z,99283.38
2022-10-18T12:00:32.280Z,99278.03
2022-10-18T12:01:51.636Z,99285.28
2022-10-18T12:03:15.264Z,99277.25
2022-10-18T12:04:24.461Z,99277.22
2022-10-18T12:05:26.739Z,99284.09
2022-10-18T12:06:35.079Z,99273.81
2022-10-18T12:07:42.422Z,99274.59
2022-10-18T12:08:49.370Z,99271.53
2022-10-18T12:09:54.831Z,99274.97
2022-10-18T12:11:04.981Z,99276.88
2022-10-18T12:12:16.521Z,99276.88
2022-10-18T12:13:44.339Z,99279.56
2022-10-18T12:14:56.530Z,99278.41
2022-10-18T12:15:58.322Z,99275.38
2022-10-18T12:17:41.720Z,99282.22
2022-10-18T12:18:30.664Z,99273.47
2022-10-18T12:19:35.407Z,99273.47
2022-10-18T12:20:46.167Z,99268.13
2022-10-18T12:21:47.858Z,99272.34
2022-10-18T12:23:04.452Z,99265.84
2022-10-18T12:24:16.182Z,99263.53
2022-10-18T12:25:18.984Z,99271.94
2022-10-18T12:26:21.459Z,99270.78
2022-10-18T12:27:36.550Z,99274.59
2022-10-18T12:28:38.408Z,99274.25
2022-10-18T12:30:14.293Z,99271.56
2022-10-18T12:31:15.658Z,99273.84
2022-10-18T12:32:22.259Z,99273.09
2022-10-18T12:33:29.181Z,99270.78
2022-10-18T12:34:43.505Z,99274.97
2022-10-18T12:35:59.961Z,99280.34
2022-10-18T12:37:39.875Z,99290.25
2022-10-18T12:38:45.411Z,99280.31
2022-10-18T12:40:10.483Z,99277.66
2022-10-18T12:41:28.268Z,99277.28
2022-10-18T12:42:33.658Z,99274.97
2022-10-18T12:43:38.344Z,99274.22
2022-10-18T12:44:39.992Z,99276.13
2022-10-18T12:45:56.967Z,99270.41
2022-10-18T12:47:01.255Z,99283.00
2022-10-18T12:48:06.528Z,99276.13
2022-10-18T12:49:12.511Z,99279.94
2022-10-18T12:50:28.067Z,99275.00
2022-10-18T12:51:29.740Z,99270.78
2022-10-18T12:52:37.029Z,99266.97
2022-10-18T12:53:39.701Z,99271.16
2022-10-18T12:54:41.163Z,99268.13
2022-10-18T12:55:45.353Z,99266.97
2022-10-18T12:56:47.647Z,99268.50
2022-10-18T12:58:03.074Z,99267.00
2022-10-18T12:59:16.397Z,99266.59
2022-10-18T13:00:29.939Z,99273.47
2022-10-18T13:01:51.449Z,99266.59
2022-10-18T13:03:18.503Z,99262.03
2022-10-18T13:04:29.204Z,99268.13
2022-10-18T13:05:55.696Z,99266.19
2022-10-18T13:07:00.696Z,99272.69
2022-10-18T13:08:27.929Z,99270.78
2022-10-18T13:09:37.148Z,99268.53
2022-10-18T13:10:39.321Z,99268.53
2022-10-18T13:11:40.819Z,99268.13
2022-10-18T13:12:54.319Z,99265.81
2022-10-18T13:14:05.569Z,99272.31